Time;durP1;ratioP1;P1;durP2;ratioP2;P2;SDS_P1;SDS_P2;PMS_P1;PMS_P2;Temp;Humidity;BMP_temperature;BMP_pressure;BME280_temperature;BME280_humidity;BME280_pressure;Samples;Min_cycle;Max_cycle;Signal;HPM_P1;HPM_P2
2022/03/15 00:00:21;;;;;;;4.67;1.47;;;7.90;99.90;;;;;;6203759;23;20224;-92
2022/03/15 00:02:52;;;;;;;3.80;1.63;;;7.80;99.90;;;;;;6205058;23;20177;-93
2022/03/15 00:05:23;;;;;;;3.97;1.47;;;7.80;99.90;;;;;;6199414;23;20443;-93
2022/03/15 00:07:58;;;;;;;5.00;1.67;;;7.80;99.90;;;;;;6203612;23;20177;-94
2022/03/15 00:10:30;;;;;;;6.47;2.00;;;7.80;99.90;;;;;;6204378;23;20177;-92
2022/03/15 00:15:54;;;;;;;;;;;;;;;;;;;;;
2022/03/15 00:18:30;;;;;;;5.80;2.17;;;7.70;99.90;;;;;;6190402;23;20223;-91
2022/03/15 00:21:04;;;;;;;3.50;2.10;;;7.70;99.90;;;;;;6206538;23;20584;-92
2022/03/15 00:23:39;;;;;;;3.57;2.07;;;7.70;99.90;;;;;;6205917;23;20184;-92
2022/03/15 00:26:10;;;;;;;5.20;1.97;;;7.60;99.90;;;;;;6206244;23;20204;-92
2022/03/15 00:28:42;;;;;;;5.07;1.87;;;7.70;99.90;;;;;;6203878;23;20176;-91
2022/03/15 00:31:13;;;;;;;4.63;2.00;;;7.60;99.90;;;;;;6210850;23;20174;-89
2022/03/15 00:33:45;;;;;;;4.47;2.33;;;7.60;99.90;;;;;;6211081;23;20212;-91
2022/03/15 00:36:16;;;;;;;7.43;2.63;;;7.50;99.90;;;;;;6205775;23;20180;-92
2022/03/15 00:38:49;;;;;;;5.10;2.37;;;7.60;99.90;;;;;;6205045;23;20166;-92
2022/03/15 00:41:20;;;;;;;4.20;2.10;;;7.60;99.90;;;;;;6204504;23;20172;-92
2022/03/15 00:43:52;;;;;;;7.10;2.50;;;7.60;99.90;;;;;;6203656;23;20477;-93
2022/03/15 00:46:23;;;;;;;5.23;2.57;;;7.60;99.90;;;;;;6202638;23;20173;-92
2022/03/15 00:52:04;;;;;;;5.70;2.77;;;7.70;99.90;;;;;;6205538;23;20181;-93
2022/03/15 00:54:37;;;;;;;6.27;2.00;;;7.60;99.90;;;;;;6205909;23;20169;-93
2022/03/15 00:57:10;;;;;;;5.03;2.20;;;7.60;99.90;;;;;;6204364;23;20181;-93
2022/03/15 00:59:42;;;;;;;6.00;2.73;;;7.50;99.90;;;;;;6204847;23;20224;-92
2022/03/15 01:02:13;;;;;;;4.10;2.80;;;7.40;99.90;;;;;;6205970;23;20208;-92
2022/03/15 01:04:44;;;;;;;5.13;2.47;;;7.50;99.90;;;;;;6204480;23;20187;-92
2022/03/15 01:07:15;;;;;;;3.77;2.50;;;7.40;99.90;;;;;;6198938;23;20972;-93
2022/03/15 01:09:48;;;;;;;6.33;2.30;;;7.40;99.90;;;;;;6198221;23;20510;-93
2022/03/15 01:12:19;;;;;;;3.70;2.30;;;7.40;99.90;;;;;;6208159;23;20165;-92
2022/03/15 01:14:51;;;;;;;5.03;2.70;;;7.40;99.90;;;;;;6203783;23;20177;-93
2022/03/15 01:17:27;;;;;;;3.53;2.50;;;7.40;99.90;;;;;;6210856;23;20192;-94
2022/03/15 01:20:00;;;;;;;3.83;2.47;;;7.30;99.90;;;;;;6233671;23;20199;-91
2022/03/15 01:22:31;;;;;;;5.30;2.30;;;7.30;99.90;;;;;;6236765;23;20167;-93
2022/03/15 01:25:04;;;;;;;5.83;2.20;;;7.40;99.90;;;;;;6235823;23;20168;-93
2022/03/15 01:30:12;;;;;;;6.60;2.87;;;7.30;99.90;;;;;;6240674;23;20250;-92
2022/03/15 01:32:42;;;;;;;3.77;2.10;;;7.30;99.90;;;;;;6212395;23;20169;-93
2022/03/15 01:35:14;;;;;;;4.40;2.43;;;7.30;99.90;;;;;;6222404;23;20219;-92
2022/03/15 01:37:45;;;;;;;6.07;2.40;;;7.30;99.90;;;;;;6230161;23;20187;-92
2022/03/15 01:40:18;;;;;;;5.30;2.90;;;7.30;99.90;;;;;;6233560;23;20195;-93
2022/03/15 01:42:49;;;;;;;3.60;2.20;;;7.30;99.90;;;;;;6228926;23;20201;-92
2022/03/15 01:45:20;;;;;;;4.83;2.70;;;7.30;99.90;;;;;;6227941;23;20647;-93
2022/03/15 01:47:51;;;;;;;5.73;2.70;;;7.30;99.90;;;;;;6226327;23;20181;-93
2022/03/15 01:50:22;;;;;;;3.63;2.67;;;7.30;99.90;;;;;;6228231;23;20169;-93
2022/03/15 01:52:54;;;;;;;3.83;2.70;;;7.20;99.90;;;;;;6231611;23;20172;-90
2022/03/15 01:55:27;;;;;;;5.83;2.70;;;7.20;99.90;;;;;;6208469;23;20172;-91
2022/03/15 01:58:00;;;;;;;5.37;2.73;;;7.20;99.90;;;;;;6204749;23;20210;-93
2022/03/15 02:00:32;;;;;;;5.93;2.20;;;7.20;99.90;;;;;;6231546;23;20212;-93
2022/03/15 02:03:05;;;;;;;5.27;2.07;;;7.10;99.90;;;;;;6233770;23;20183;-92
2022/03/15 02:05:37;;;;;;;5.93;2.40;;;7.20;99.90;;;;;;6227734;23;20196;-93
2022/03/15 02:08:13;;;;;;;7.00;2.90;;;7.10;99.90;;;;;;6232737;23;20279;-93
2022/03/15 02:10:46;;;;;;;5.10;2.47;;;7.10;99.90;;;;;;6240560;23;20168;-91
2022/03/15 02:13:17;;;;;;;5.90;2.50;;;7.10;99.90;;;;;;6239147;23;20231;-87
2022/03/15 02:15:50;;;;;;;5.57;3.00;;;7.10;99.90;;;;;;6226456;23;20425;-91
2022/03/15 02:18:25;;;;;;;6.23;3.60;;;7.20;99.90;;;;;;6208987;23;20184;-91
2022/03/15 02:21:02;;;;;;;5.03;2.93;;;7.10;99.90;;;;;;6211082;23;20184;-92
2022/03/15 02:23:34;;;;;;;6.67;3.80;;;7.10;99.90;;;;;;6186937;23;20169;-93
2022/03/15 02:26:21;;;;;;;6.07;3.50;;;7.10;99.90;;;;;;6206673;23;20180;-93
2022/03/15 02:28:52;;;;;;;7.70;3.20;;;7.10;99.90;;;;;;6210270;23;20179;-93
2022/03/15 02:37:00;;;;;;;6.23;2.23;;;7.10;99.90;;;;;;6236893;23;20218;-93
2022/03/15 02:39:32;;;;;;;3.57;2.10;;;7.10;99.90;;;;;;6239700;23;20187;-93
2022/03/15 02:42:04;;;;;;;4.33;2.07;;;7.00;99.90;;;;;;6239031;23;20188;-93
2022/03/15 02:44:35;;;;;;;5.47;2.00;;;7.00;99.90;;;;;;6241724;23;20173;-90
2022/03/15 02:47:07;;;;;;;4.47;1.80;;;7.00;99.90;;;;;;6241409;23;20164;-95
2022/03/15 02:54:58;;;;;;;5.13;1.80;;;7.00;99.90;;;;;;6232185;23;20219;-92
2022/03/15 02:57:31;;;;;;;1.87;1.47;;;6.90;99.90;;;;;;6241463;23;20184;-92
2022/03/15 03:00:02;;;;;;;2.67;1.30;;;6.90;99.90;;;;;;6229784;23;20207;-93
2022/03/15 03:02:35;;;;;;;1.50;1.40;;;6.80;99.90;;;;;;6240743;23;20200;-93
2022/03/15 03:05:24;;;;;;;1.57;0.90;;;6.80;99.90;;;;;;6232351;23;20196;-87
2022/03/15 03:10:41;;;;;;;2.57;1.20;;;6.80;99.90;;;;;;6240958;23;20176;-91
2022/03/15 03:13:13;;;;;;;1.07;0.70;;;6.80;99.90;;;;;;6244185;23;20178;-94
2022/03/15 03:26:27;;;;;;;1.53;1.00;;;6.60;99.90;;;;;;6229203;23;20211;-89
2022/03/15 03:29:00;;;;;;;3.03;0.60;;;6.60;99.90;;;;;;6218256;23;20194;-93
2022/03/15 03:34:06;;;;;;;2.50;0.80;;;6.50;99.90;;;;;;6191297;23;20183;-91
2022/03/15 03:36:39;;;;;;;0.93;0.83;;;6.50;99.90;;;;;;6243852;23;20195;-88
2022/03/15 03:39:30;;;;;;;2.30;0.60;;;6.40;99.90;;;;;;6233048;23;20204;-90
2022/03/15 03:44:41;;;;;;;0.50;0.50;;;6.40;99.90;;;;;;6236933;23;20191;-93
2022/03/15 03:47:13;;;;;;;0.80;0.60;;;6.40;99.90;;;;;;6215023;23;20221;-90
2022/03/15 03:49:44;;;;;;;2.40;0.80;;;6.50;99.90;;;;;;6243300;23;20184;-92
2022/03/15 03:52:16;;;;;;;1.13;0.70;;;6.40;99.90;;;;;;6242945;23;20169;-92
2022/03/15 03:54:48;;;;;;;0.57;0.50;;;6.50;99.90;;;;;;6240898;23;20173;-92
2022/03/15 03:57:19;;;;;;;1.90;0.67;;;6.40;99.90;;;;;;6242136;23;20168;-93
2022/03/15 04:02:32;;;;;;;1.30;1.00;;;6.40;99.90;;;;;;6235574;23;20201;-92
2022/03/15 04:05:04;;;;;;;1.10;0.83;;;6.40;99.90;;;;;;6239599;23;20229;-91
2022/03/15 04:07:40;;;;;;;1.07;0.63;;;6.40;99.90;;;;;;6231686;23;20167;-92
2022/03/15 04:10:13;;;;;;;1.67;0.90;;;6.40;99.90;;;;;;6233544;23;20168;-92
2022/03/15 04:12:44;;;;;;;1.07;0.70;;;6.50;99.90;;;;;;6233662;23;20556;-92
2022/03/15 04:15:16;;;;;;;1.97;0.93;;;6.50;99.90;;;;;;6204382;23;20176;-93
2022/03/15 04:17:49;;;;;;;2.67;1.43;;;6.50;99.90;;;;;;6197680;23;20183;-93
2022/03/15 04:20:22;;;;;;;1.73;1.47;;;6.60;99.90;;;;;;6224358;23;20179;-91
2022/03/15 04:22:54;;;;;;;2.37;1.40;;;6.60;99.90;;;;;;6224548;23;20175;-92
2022/03/15 04:25:25;;;;;;;1.60;0.80;;;6.70;99.90;;;;;;6224323;23;20188;-93
2022/03/15 04:28:00;;;;;;;1.27;1.00;;;6.70;99.90;;;;;;6203301;23;20255;-93
2022/03/15 04:30:32;;;;;;;1.10;0.90;;;6.70;99.90;;;;;;6229398;23;20221;-93
2022/03/15 04:33:04;;;;;;;2.27;1.23;;;6.70;99.90;;;;;;6232983;23;20177;-92
2022/03/15 04:35:35;;;;;;;2.10;1.20;;;6.70;99.90;;;;;;6210062;23;20165;-93
2022/03/15 04:38:06;;;;;;;5.97;3.97;;;6.70;99.90;;;;;;6234380;23;20177;-93
2022/03/15 04:40:38;;;;;;;5.27;3.77;;;6.80;99.90;;;;;;6234180;23;20225;-93
2022/03/15 04:43:10;;;;;;;4.00;3.07;;;6.80;99.90;;;;;;6236634;23;20179;-92
2022/03/15 04:45:42;;;;;;;3.70;1.60;;;6.80;99.90;;;;;;6200794;23;20164;-93
2022/03/15 04:51:01;;;;;;;4.03;1.30;;;6.70;99.90;;;;;;6222044;23;20196;-91
2022/03/15 04:53:32;;;;;;;1.90;1.37;;;6.70;99.90;;;;;;6231098;23;20176;-92
2022/03/15 04:56:03;;;;;;;1.43;1.20;;;6.80;99.90;;;;;;6224013;23;20200;-92
2022/03/15 04:58:35;;;;;;;2.13;1.70;;;6.80;99.90;;;;;;6223088;23;20179;-92
2022/03/15 05:01:06;;;;;;;4.07;1.80;;;6.80;99.90;;;;;;6219791;23;20196;-92
2022/03/15 05:03:39;;;;;;;2.57;1.80;;;6.80;99.90;;;;;;6223995;23;20169;-92
2022/03/15 05:06:10;;;;;;;2.27;1.30;;;6.80;99.90;;;;;;6220650;23;20199;-93
2022/03/15 05:08:41;;;;;;;3.10;1.30;;;6.80;99.90;;;;;;6221491;23;20180;-91
2022/03/15 05:11:11;;;;;;;1.93;1.30;;;6.80;99.90;;;;;;6226527;23;20188;-91
2022/03/15 05:13:45;;;;;;;1.17;0.87;;;6.80;99.90;;;;;;6233259;23;20180;-91
2022/03/15 05:16:17;;;;;;;2.87;1.33;;;6.80;99.90;;;;;;6196812;23;20187;-92
2022/03/15 05:18:53;;;;;;;2.13;1.40;;;6.80;99.90;;;;;;6220589;23;20178;-92
2022/03/15 05:21:25;;;;;;;2.37;1.37;;;6.90;99.90;;;;;;6221641;23;20204;-93
2022/03/15 05:23:56;;;;;;;2.03;1.30;;;6.90;99.90;;;;;;6200461;23;20176;-93
2022/03/15 05:26:28;;;;;;;1.63;1.20;;;6.90;99.90;;;;;;6226062;23;20210;-92
2022/03/15 05:28:59;;;;;;;2.63;1.50;;;6.90;99.90;;;;;;6220082;23;20659;-91
2022/03/15 05:31:31;;;;;;;2.50;1.60;;;6.90;99.90;;;;;;6221338;23;20172;-92
2022/03/15 05:34:04;;;;;;;1.60;1.30;;;6.90;99.90;;;;;;6221204;23;20194;-93
2022/03/15 05:36:35;;;;;;;3.33;2.00;;;6.90;99.90;;;;;;6222026;23;20168;-94
2022/03/15 05:39:06;;;;;;;4.47;1.73;;;6.90;99.90;;;;;;6220503;23;20175;-93
2022/03/15 05:41:40;;;;;;;2.27;1.50;;;6.90;99.90;;;;;;6222586;23;20203;-93
2022/03/15 05:44:12;;;;;;;3.20;1.50;;;6.90;99.90;;;;;;6231706;23;20159;-91
2022/03/15 05:46:43;;;;;;;2.13;1.80;;;6.90;99.90;;;;;;6216063;23;20160;-93
2022/03/15 05:49:17;;;;;;;1.80;1.50;;;6.90;99.90;;;;;;6240399;23;20183;-93
2022/03/15 05:51:47;;;;;;;1.20;1.10;;;6.90;99.90;;;;;;6232710;23;20464;-93
2022/03/15 05:54:18;;;;;;;2.27;1.30;;;6.90;99.90;;;;;;6225551;23;20243;-92
2022/03/15 05:56:49;;;;;;;2.10;1.07;;;6.90;99.90;;;;;;6235184;23;20179;-90
2022/03/15 05:59:21;;;;;;;1.10;1.00;;;7.00;99.90;;;;;;6244020;23;20168;-93
2022/03/15 06:01:53;;;;;;;1.20;1.10;;;7.00;99.90;;;;;;6236826;23;20217;-93
2022/03/15 06:04:26;;;;;;;1.10;1.00;;;7.00;99.90;;;;;;6225983;23;20176;-93
2022/03/15 06:06:57;;;;;;;1.70;1.03;;;7.00;99.90;;;;;;6224333;23;20203;-93
2022/03/15 06:09:29;;;;;;;1.80;1.20;;;7.00;99.90;;;;;;6223655;23;20180;-93
2022/03/15 06:12:00;;;;;;;2.40;1.30;;;7.00;99.90;;;;;;6227429;23;20176;-93
2022/03/15 06:14:31;;;;;;;2.30;1.10;;;7.00;99.90;;;;;;6224151;23;20187;-92
2022/03/15 06:17:04;;;;;;;1.30;1.20;;;7.00;99.90;;;;;;6228278;23;20187;-90
2022/03/15 06:19:37;;;;;;;1.20;1.00;;;7.00;99.90;;;;;;6223262;23;20173;-93
2022/03/15 06:22:09;;;;;;;1.43;1.17;;;7.00;99.90;;;;;;6231502;23;20227;-93
2022/03/15 06:24:42;;;;;;;1.80;1.10;;;7.00;99.90;;;;;;6204680;23;20248;-93
2022/03/15 06:27:15;;;;;;;2.07;1.10;;;7.00;99.90;;;;;;6233976;23;20199;-93
2022/03/15 06:29:47;;;;;;;1.57;1.00;;;7.00;99.90;;;;;;6209904;23;20176;-92
2022/03/15 06:32:19;;;;;;;1.33;1.00;;;7.00;99.90;;;;;;6223942;23;20646;-92
2022/03/15 06:34:53;;;;;;;2.37;0.97;;;7.00;99.90;;;;;;6228795;23;20223;-92
2022/03/15 06:37:25;;;;;;;1.57;1.13;;;7.00;99.90;;;;;;6220148;23;20180;-93
2022/03/15 06:39:56;;;;;;;2.67;0.97;;;7.00;99.90;;;;;;6195230;23;20219;-94
2022/03/15 06:42:28;;;;;;;2.03;0.87;;;7.10;99.90;;;;;;6222373;23;20230;-93
2022/03/15 06:44:59;;;;;;;1.20;0.70;;;7.10;99.90;;;;;;6227183;23;20173;-94
2022/03/15 06:47:31;;;;;;;0.80;0.77;;;7.00;99.90;;;;;;6194534;23;20259;-93
2022/03/15 06:50:04;;;;;;;2.20;1.00;;;7.10;99.90;;;;;;6228571;23;20172;-93
2022/03/15 06:52:36;;;;;;;1.77;0.90;;;7.10;99.90;;;;;;6197483;23;20557;-93
2022/03/15 06:55:08;;;;;;;1.70;0.93;;;7.10;99.90;;;;;;6222915;23;20188;-93
2022/03/15 06:57:40;;;;;;;0.80;0.70;;;7.10;99.90;;;;;;6238719;23;20190;-93
2022/03/15 07:00:14;;;;;;;1.60;0.97;;;7.10;99.90;;;;;;6239473;23;20172;-92
2022/03/15 07:02:45;;;;;;;1.27;0.77;;;7.10;99.90;;;;;;6232644;23;20210;-93
2022/03/15 07:05:17;;;;;;;1.77;0.77;;;7.10;99.90;;;;;;6223283;23;20171;-93
2022/03/15 07:07:48;;;;;;;1.00;0.73;;;7.10;99.90;;;;;;6220882;23;20187;-94
2022/03/15 07:10:20;;;;;;;0.70;0.70;;;7.10;99.90;;;;;;6202584;23;20173;-93
2022/03/15 07:12:51;;;;;;;1.00;0.90;;;7.10;99.90;;;;;;6220904;23;20176;-92
2022/03/15 07:15:24;;;;;;;1.53;1.20;;;7.10;99.90;;;;;;6224230;23;20203;-92
2022/03/15 07:17:59;;;;;;;1.50;1.37;;;7.00;99.90;;;;;;6222821;23;20505;-93
2022/03/15 07:20:33;;;;;;;2.27;1.30;;;7.00;99.90;;;;;;6221825;23;20626;-93
2022/03/15 07:23:04;;;;;;;2.93;1.10;;;7.00;99.90;;;;;;6195624;23;20224;-93
2022/03/15 07:25:35;;;;;;;1.40;1.30;;;7.00;99.90;;;;;;6222059;23;20212;-92
2022/03/15 07:28:06;;;;;;;1.10;1.07;;;7.00;99.90;;;;;;6233093;23;20169;-92
2022/03/15 07:30:38;;;;;;;2.50;1.23;;;7.00;99.90;;;;;;6196813;23;20219;-93
2022/03/15 07:33:09;;;;;;;0.80;0.60;;;7.00;99.90;;;;;;6231300;23;20184;-92
2022/03/15 07:35:41;;;;;;;0.80;0.70;;;7.00;99.90;;;;;;6220889;23;20619;-92
2022/03/15 07:38:16;;;;;;;1.13;0.60;;;6.90;99.90;;;;;;6219691;23;20236;-92
2022/03/15 07:40:48;;;;;;;0.63;0.63;;;7.00;99.90;;;;;;6223942;23;20607;-92
2022/03/15 07:43:19;;;;;;;0.57;0.50;;;6.90;99.90;;;;;;6221449;23;20192;-92
2022/03/15 07:45:51;;;;;;;0.47;0.40;;;6.90;99.90;;;;;;6219956;23;20248;-94
2022/03/15 07:48:21;;;;;;;3.40;0.50;;;6.80;99.90;;;;;;6220912;23;20258;-92
2022/03/15 07:50:54;;;;;;;1.53;0.30;;;6.80;99.90;;;;;;6225431;23;20211;-94
2022/03/15 07:53:25;;;;;;;0.50;0.50;;;6.90;99.90;;;;;;6220685;23;20200;-92
2022/03/15 07:56:00;;;;;;;0.60;0.60;;;6.80;99.90;;;;;;6219684;23;20177;-93
2022/03/15 07:58:31;;;;;;;1.13;0.70;;;6.90;99.90;;;;;;6219728;23;20219;-93
2022/03/15 08:01:02;;;;;;;0.60;0.60;;;6.90;99.90;;;;;;6223793;23;20188;-94
2022/03/15 08:03:33;;;;;;;1.67;0.70;;;6.90;99.90;;;;;;6221948;23;20307;-93
2022/03/15 08:06:06;;;;;;;1.17;0.80;;;6.90;99.90;;;;;;6220868;23;20228;-92
2022/03/15 08:08:37;;;;;;;0.57;0.57;;;6.90;99.90;;;;;;6233261;23;20192;-92
2022/03/15 08:11:09;;;;;;;0.63;0.60;;;6.90;99.90;;;;;;6240303;23;20164;-94
2022/03/15 08:13:40;;;;;;;0.80;0.60;;;6.90;99.90;;;;;;6215741;23;20175;-93
2022/03/15 08:16:11;;;;;;;0.80;0.60;;;6.90;99.90;;;;;;6220081;23;20662;-91
2022/03/15 08:18:42;;;;;;;0.60;0.60;;;6.90;99.90;;;;;;6219769;23;20172;-93
2022/03/15 08:21:15;;;;;;;1.97;1.00;;;7.00;99.90;;;;;;6220522;23;20199;-93
2022/03/15 08:23:48;;;;;;;0.97;0.50;;;7.00;99.90;;;;;;6220345;23;20208;-93
2022/03/15 08:26:19;;;;;;;0.70;0.70;;;6.90;99.90;;;;;;6219673;23;20189;-93
2022/03/15 08:28:50;;;;;;;0.60;0.60;;;6.90;99.90;;;;;;6218629;23;20542;-93
2022/03/15 08:31:21;;;;;;;0.70;0.60;;;6.90;99.90;;;;;;6193790;23;20584;-92
2022/03/15 08:33:53;;;;;;;0.60;0.60;;;6.90;99.90;;;;;;6218975;23;20556;-92
2022/03/15 08:36:25;;;;;;;0.93;0.70;;;6.90;99.90;;;;;;6219510;23;20214;-94
2022/03/15 08:38:56;;;;;;;5.87;1.07;;;7.00;99.90;;;;;;6218473;23;20203;-93
2022/03/15 08:41:27;;;;;;;4.37;1.33;;;6.90;99.90;;;;;;6219158;23;20210;-93
2022/03/15 08:43:58;;;;;;;3.77;0.70;;;6.80;99.90;;;;;;6231037;23;20188;-92
2022/03/15 08:46:29;;;;;;;1.50;0.80;;;6.80;99.90;;;;;;6238768;23;20187;-92
2022/03/15 08:49:01;;;;;;;6.10;0.90;;;6.80;99.90;;;;;;6239546;23;20179;-92
2022/03/15 08:51:33;;;;;;;1.40;0.90;;;6.80;99.90;;;;;;6240454;23;20172;-93
2022/03/15 08:54:04;;;;;;;3.67;0.70;;;6.80;99.90;;;;;;6240989;23;20167;-92
2022/03/15 08:56:35;;;;;;;11.90;1.07;;;6.80;99.90;;;;;;6238205;23;20177;-93
2022/03/15 08:59:06;;;;;;;4.00;0.50;;;6.80;99.90;;;;;;6219028;23;20175;-92
2022/03/15 09:01:37;;;;;;;1.83;0.70;;;6.80;99.90;;;;;;6220421;23;20575;-92
2022/03/15 09:04:08;;;;;;;1.30;0.60;;;6.80;99.90;;;;;;6219942;23;20283;-91
2022/03/15 09:06:41;;;;;;;5.93;0.80;;;6.80;99.90;;;;;;6220048;23;20164;-93
2022/03/15 09:09:12;;;;;;;1.43;0.60;;;6.80;99.90;;;;;;6218613;23;20501;-93
2022/03/15 09:11:43;;;;;;;0.70;0.60;;;6.80;99.90;;;;;;6219049;23;20203;-93
2022/03/15 09:14:19;;;;;;;1.30;0.80;;;6.80;99.90;;;;;;6219179;23;20210;-93
2022/03/15 09:16:50;;;;;;;2.67;0.90;;;6.80;99.90;;;;;;6219402;23;20194;-94
2022/03/15 09:19:22;;;;;;;1.07;0.90;;;6.80;99.90;;;;;;6218911;23;20256;-91
2022/03/15 09:21:55;;;;;;;7.10;1.03;;;6.80;99.90;;;;;;6169354;23;20206;-92
2022/03/15 09:24:25;;;;;;;3.17;1.03;;;6.90;99.90;;;;;;6219982;23;20538;-91
2022/03/15 09:26:56;;;;;;;3.73;1.07;;;6.90;99.90;;;;;;6237464;23;20195;-91
2022/03/15 09:29:28;;;;;;;3.67;1.10;;;6.80;99.90;;;;;;6237107;23;20179;-91
2022/03/15 09:32:00;;;;;;;10.93;1.40;;;6.90;99.90;;;;;;6239498;23;20560;-92
2022/03/15 09:34:31;;;;;;;3.87;1.33;;;6.80;99.90;;;;;;6241726;23;20173;-93
2022/03/15 09:37:04;;;;;;;1.43;1.20;;;6.80;99.90;;;;;;6242235;23;20180;-94
2022/03/15 09:39:35;;;;;;;1.90;1.47;;;6.90;99.90;;;;;;6235066;23;20183;-92
2022/03/15 09:42:09;;;;;;;4.17;1.13;;;6.90;99.90;;;;;;6222591;23;20176;-92
2022/03/15 09:44:42;;;;;;;1.23;1.03;;;6.90;99.90;;;;;;6222344;23;20210;-93
2022/03/15 09:47:15;;;;;;;1.27;1.17;;;6.90;99.90;;;;;;6222087;23;20172;-93
2022/03/15 09:49:47;;;;;;;1.33;1.23;;;7.00;99.90;;;;;;6197685;23;20164;-92
2022/03/15 09:52:23;;;;;;;2.80;1.10;;;7.00;99.90;;;;;;6223047;23;20175;-91
2022/03/15 09:54:54;;;;;;;1.40;1.13;;;7.00;99.90;;;;;;6222823;23;20172;-93
2022/03/15 09:57:26;;;;;;;1.40;1.03;;;7.10;99.90;;;;;;6221837;23;20221;-93
2022/03/15 10:00:01;;;;;;;1.77;1.23;;;7.00;99.90;;;;;;6222145;23;20205;-93
2022/03/15 10:02:32;;;;;;;1.83;1.10;;;7.10;99.90;;;;;;6222127;23;20194;-94
2022/03/15 10:05:05;;;;;;;2.17;1.30;;;7.10;99.90;;;;;;6236755;23;20187;-91
2022/03/15 10:07:39;;;;;;;67.70;3.97;;;7.10;99.90;;;;;;6216725;23;20169;-93
2022/03/15 10:10:15;;;;;;;1.60;1.23;;;7.10;99.90;;;;;;6243815;23;20162;-93
2022/03/15 10:12:46;;;;;;;0.83;0.70;;;7.10;99.90;;;;;;6244434;23;20172;-95
2022/03/15 10:15:19;;;;;;;2.10;0.80;;;7.10;99.90;;;;;;6245364;23;20175;-92
2022/03/15 10:17:52;;;;;;;1.93;0.60;;;7.10;99.90;;;;;;6219506;23;20214;-92
2022/03/15 10:20:28;;;;;;;0.73;0.73;;;7.10;99.90;;;;;;6244975;23;20196;-92
2022/03/15 10:23:03;;;;;;;1.00;0.90;;;7.10;99.90;;;;;;6245061;23;20164;-91
2022/03/15 10:25:36;;;;;;;0.93;0.80;;;7.10;99.90;;;;;;6245185;23;20202;-92
2022/03/15 10:28:10;;;;;;;1.77;0.83;;;7.10;99.90;;;;;;6244166;23;20209;-92
2022/03/15 10:30:47;;;;;;;1.60;1.00;;;7.10;99.90;;;;;;6227941;23;20179;-93
2022/03/15 10:33:20;;;;;;;2.70;0.90;;;7.10;99.90;;;;;;6199588;23;20210;-92
2022/03/15 10:35:53;;;;;;;1.30;1.03;;;7.10;99.90;;;;;;6223413;23;20176;-92
2022/03/15 10:38:26;;;;;;;1.40;1.30;;;7.10;99.90;;;;;;6222492;23;20175;-93
2022/03/15 10:40:58;;;;;;;1.63;1.40;;;7.10;99.90;;;;;;6224295;23;20621;-92
2022/03/15 10:43:30;;;;;;;1.10;1.00;;;7.10;99.90;;;;;;6221497;23;20192;-93
2022/03/15 10:46:01;;;;;;;1.30;1.10;;;7.10;99.90;;;;;;6214716;23;20647;-92
2022/03/15 10:48:35;;;;;;;1.43;1.10;;;7.10;99.90;;;;;;6219396;23;20172;-92
2022/03/15 10:51:10;;;;;;;1.90;1.30;;;7.10;99.90;;;;;;6221378;23;20238;-94
2022/03/15 10:53:44;;;;;;;1.40;1.30;;;7.10;99.90;;;;;;6223069;23;20214;-93
2022/03/15 10:56:17;;;;;;;1.87;1.10;;;7.20;99.90;;;;;;6220971;23;20214;-92
2022/03/15 10:58:51;;;;;;;1.27;1.13;;;7.10;99.90;;;;;;6199164;23;20184;-94
2022/03/15 11:01:25;;;;;;;1.20;0.90;;;7.10;99.90;;;;;;6227919;23;20179;-93
2022/03/15 11:04:00;;;;;;;2.27;1.30;;;7.10;99.90;;;;;;6222163;23;20168;-93
2022/03/15 11:06:34;;;;;;;1.27;1.17;;;7.20;99.90;;;;;;6225314;23;20176;-92
2022/03/15 11:09:18;;;;;;;2.17;0.97;;;7.20;99.90;;;;;;6222874;23;20180;-93
2022/03/15 11:11:53;;;;;;;1.53;0.97;;;7.30;99.90;;;;;;6222585;23;20178;-92
2022/03/15 11:14:49;;;;;;;1.60;1.50;;;7.40;99.90;;;;;;6223576;23;20180;-92
2022/03/15 11:17:25;;;;;;;1.10;1.00;;;7.50;99.90;;;;;;6240068;23;20180;-92
2022/03/15 11:19:58;;;;;;;3.10;1.37;;;7.60;99.90;;;;;;6241239;23;20161;-93
2022/03/15 11:22:30;;;;;;;1.37;1.20;;;7.60;99.90;;;;;;6239302;23;20167;-94
2022/03/15 11:25:07;;;;;;;1.30;1.20;;;7.60;99.90;;;;;;6226814;23;20199;-94
2022/03/15 11:27:41;;;;;;;2.03;1.87;;;7.60;99.90;;;;;;6221070;23;20183;-94
2022/03/15 11:30:14;;;;;;;4.30;1.83;;;7.70;99.90;;;;;;6221676;23;20176;-93
2022/03/15 11:32:46;;;;;;;2.87;1.90;;;7.60;99.90;;;;;;6194217;23;20176;-93
2022/03/15 11:35:22;;;;;;;2.20;1.90;;;7.60;99.90;;;;;;6220114;23;20183;-92
2022/03/15 11:37:54;;;;;;;3.03;2.10;;;7.70;99.90;;;;;;6222970;23;20192;-93
2022/03/15 11:40:27;;;;;;;3.60;2.50;;;7.70;99.90;;;;;;6220234;23;20354;-93
2022/03/15 11:43:10;;;;;;;3.73;2.63;;;7.70;99.90;;;;;;6219745;23;20176;-92
2022/03/15 11:45:45;;;;;;;4.33;2.47;;;7.70;99.90;;;;;;6224210;23;20207;-93
2022/03/15 11:48:23;;;;;;;5.40;2.67;;;7.70;99.90;;;;;;6220821;23;20183;-92
2022/03/15 11:51:02;;;;;;;3.63;2.73;;;7.80;99.90;;;;;;6219915;23;20164;-93
2022/03/15 11:53:44;;;;;;;5.63;2.43;;;7.80;99.90;;;;;;6221197;23;20178;-92
2022/03/15 11:56:23;;;;;;;4.57;2.80;;;7.80;99.90;;;;;;6219583;23;20196;-94
2022/03/15 11:58:56;;;;;;;3.93;2.53;;;7.80;99.90;;;;;;6218464;23;20201;-93
2022/03/15 12:01:28;;;;;;;3.43;2.57;;;7.80;99.90;;;;;;6220198;23;20169;-93
2022/03/15 12:04:02;;;;;;;4.13;2.50;;;7.80;99.90;;;;;;6220326;23;20183;-94
2022/03/15 12:06:34;;;;;;;5.10;2.70;;;7.80;99.90;;;;;;6194245;23;20191;-93
2022/03/15 12:09:13;;;;;;;6.27;2.90;;;7.90;99.90;;;;;;6218961;23;20185;-95
2022/03/15 12:11:47;;;;;;;3.03;2.53;;;7.90;99.90;;;;;;6219446;23;20175;-95
2022/03/15 12:14:20;;;;;;;2.97;2.50;;;7.90;99.90;;;;;;6219216;23;20179;-93
2022/03/15 12:17:01;;;;;;;7.23;3.07;;;7.90;99.90;;;;;;6170470;23;20211;-94
2022/03/15 12:19:41;;;;;;;4.40;2.47;;;7.90;99.90;;;;;;6219765;23;20175;-93
2022/03/15 12:22:23;;;;;;;5.07;2.47;;;7.90;99.90;;;;;;6220703;23;20235;-92
2022/03/15 12:25:06;;;;;;;6.13;3.50;;;7.90;99.90;;;;;;6222613;23;20824;-94
2022/03/15 12:28:04;;;;;;;4.87;3.83;;;7.90;99.90;;;;;;6219484;23;20644;-93
2022/03/15 12:30:39;;;;;;;7.73;3.53;;;7.90;99.90;;;;;;6220345;23;20203;-93
2022/03/15 12:33:10;;;;;;;5.00;3.40;;;7.90;99.90;;;;;;6220193;23;20191;-94
2022/03/15 12:35:46;;;;;;;5.63;4.07;;;7.90;99.90;;;;;;6225844;23;20178;-92
2022/03/15 12:38:17;;;;;;;8.00;4.40;;;7.90;99.90;;;;;;6241128;23;20199;-94
2022/03/15 12:40:48;;;;;;;7.00;4.57;;;7.90;99.90;;;;;;6241547;23;20176;-94
2022/03/15 12:43:37;;;;;;;5.23;3.90;;;7.90;99.90;;;;;;6225193;23;20171;-94
2022/03/15 12:46:09;;;;;;;8.03;4.47;;;7.90;99.90;;;;;;6222053;23;20523;-93
2022/03/15 12:48:45;;;;;;;4.83;4.10;;;7.90;99.90;;;;;;6218182;23;20173;-93
2022/03/15 12:51:21;;;;;;;4.93;3.80;;;8.00;99.90;;;;;;6193940;23;20168;-92
2022/03/15 12:53:52;;;;;;;5.10;4.10;;;8.00;99.90;;;;;;6221539;23;20176;-92
2022/03/15 12:56:24;;;;;;;6.47;3.57;;;7.90;99.90;;;;;;6219598;23;20204;-93
2022/03/15 12:58:58;;;;;;;4.63;4.23;;;7.90;99.90;;;;;;6220211;23;20196;-94
2022/03/15 13:01:29;;;;;;;3.50;2.83;;;7.90;99.90;;;;;;6219678;23;20180;-92
2022/03/15 13:04:02;;;;;;;5.43;2.00;;;7.90;99.90;;;;;;6226933;23;20186;-92
2022/03/15 13:06:34;;;;;;;4.33;2.17;;;7.90;99.90;;;;;;6238073;23;20191;-93
2022/03/15 13:09:06;;;;;;;3.33;2.33;;;7.90;99.90;;;;;;6234054;23;20168;-93
2022/03/15 13:11:47;;;;;;;2.20;1.17;;;7.80;99.90;;;;;;6222692;23;20200;-94
2022/03/15 13:14:24;;;;;;;2.60;1.20;;;7.80;99.90;;;;;;6224595;23;20183;-95
2022/03/15 13:17:00;;;;;;;2.77;1.00;;;7.70;99.90;;;;;;6221115;23;20176;-96
2022/03/15 13:19:34;;;;;;;1.37;0.70;;;7.70;99.90;;;;;;6219311;23;20254;-93
2022/03/15 13:22:07;;;;;;;1.73;0.90;;;7.60;99.90;;;;;;6218499;23;20191;-93
2022/03/15 13:24:38;;;;;;;1.60;0.73;;;7.60;99.90;;;;;;6219521;23;20188;-92
2022/03/15 13:27:10;;;;;;;20.93;5.13;;;7.60;99.90;;;;;;6218402;23;20238;-93
2022/03/15 13:29:48;;;;;;;2.57;0.50;;;7.60;99.90;;;;;;6218328;23;20238;-93
2022/03/15 13:32:23;;;;;;;2.50;0.80;;;7.50;99.90;;;;;;6218776;23;20183;-93
2022/03/15 13:34:58;;;;;;;0.87;0.60;;;7.50;99.90;;;;;;6219111;23;20173;-94
2022/03/15 13:37:29;;;;;;;1.70;0.57;;;7.40;99.90;;;;;;6217909;23;20211;-95
2022/03/15 13:40:00;;;;;;;0.63;0.57;;;7.40;99.90;;;;;;6218575;23;20192;-95
2022/03/15 13:42:31;;;;;;;1.53;0.50;;;7.40;99.90;;;;;;6218875;23;20181;-95
2022/03/15 13:45:04;;;;;;;2.40;0.50;;;7.40;99.90;;;;;;6218819;23;20188;-94
2022/03/15 13:47:35;;;;;;;1.33;0.60;;;7.40;99.90;;;;;;6219243;23;20230;-92
2022/03/15 13:50:09;;;;;;;1.47;0.80;;;7.30;99.90;;;;;;6220728;23;20169;-94
2022/03/15 13:52:40;;;;;;;1.90;0.63;;;7.30;99.90;;;;;;6219459;23;20177;-93
2022/03/15 13:55:15;;;;;;;1.20;0.70;;;7.20;99.90;;;;;;6223074;23;20180;-95
2022/03/15 13:57:52;;;;;;;2.73;0.40;;;7.30;99.90;;;;;;6223206;23;20172;-92
2022/03/15 14:00:28;;;;;;;1.27;0.30;;;7.20;99.90;;;;;;6219503;23;20172;-94
2022/03/15 14:03:07;;;;;;;2.57;2.13;;;7.30;99.90;;;;;;6219573;23;20221;-93
2022/03/15 14:05:39;;;;;;;0.77;0.53;;;7.30;99.90;;;;;;6218577;23;20176;-95
2022/03/15 14:08:12;;;;;;;1.70;1.60;;;7.30;99.90;;;;;;6192620;23;20231;-94
2022/03/15 14:10:45;;;;;;;1.10;0.70;;;7.30;99.90;;;;;;6223276;23;20169;-95